sensor_id;sensor_type;location;lat;lon;timestamp;pressure;altitude;pressure_sealevel;temperature;humidity
37486;BME280;23341;50.296;18.960;2023-05-11T00:03:32;49474.56;;;-144.43;58.09
37486;BME280;23341;50.296;18.960;2023-05-11T00:08:37;49466.56;;;-144.43;58.81
37486;BME280;23341;50.296;18.960;2023-05-11T00:13:42;49446.56;;;-144.43;58.19
37486;BME280;23341;50.296;18.960;2023-05-11T00:18:46;49442.56;;;-144.43;59.70
37486;BME280;23341;50.296;18.960;2023-05-11T00:23:51;49454.56;;;-144.43;60.64
37486;BME280;23341;50.296;18.960;2023-05-11T00:28:57;49422.59;;;-144.43;59.73
37486;BME280;23341;50.296;18.960;2023-05-11T00:34:02;49446.56;;;-144.43;60.52
37486;BME280;23341;50.296;18.960;2023-05-11T00:39:06;49426.59;;;-144.43;60.35
37486;BME280;23341;50.296;18.960;2023-05-11T00:44:11;49446.56;;;-144.43;61.23
37486;BME280;23341;50.296;18.960;2023-05-11T00:49:16;49462.56;;;-144.43;61.91
37486;BME280;23341;50.296;18.960;2023-05-11T00:54:23;49436.56;;;-144.43;61.91
37486;BME280;23341;50.296;18.960;2023-05-11T00:59:29;49428.59;;;-144.43;61.87
37486;BME280;23341;50.296;18.960;2023-05-11T01:04:34;49430.56;;;-144.43;61.69
37486;BME280;23341;50.296;18.960;2023-05-11T01:09:45;49418.59;;;-144.43;63.03
37486;BME280;23341;50.296;18.960;2023-05-11T01:14:58;49412.59;;;-144.43;64.06
37486;BME280;23341;50.296;18.960;2023-05-11T01:20:06;49408.59;;;-144.43;63.66
37486;BME280;23341;50.296;18.960;2023-05-11T01:25:21;49410.59;;;-144.43;63.36
37486;BME280;23341;50.296;18.960;2023-05-11T01:30:35;49382.59;;;-144.43;63.70
37486;BME280;23341;50.296;18.960;2023-05-11T01:35:47;49396.59;;;-144.43;65.71
37486;BME280;23341;50.296;18.960;2023-05-11T01:40:55;49376.63;;;-144.43;65.20
37486;BME280;23341;50.296;18.960;2023-05-11T01:46:04;49388.59;;;-144.43;65.62
37486;BME280;23341;50.296;18.960;2023-05-11T01:51:10;49402.59;;;-144.43;66.42
37486;BME280;23341;50.296;18.960;2023-05-11T01:56:16;49382.59;;;-144.43;66.51
37486;BME280;23341;50.296;18.960;2023-05-11T02:01:25;49364.63;;;-144.43;66.85
37486;BME280;23341;50.296;18.960;2023-05-11T02:06:31;49350.63;;;-144.43;67.65
37486;BME280;23341;50.296;18.960;2023-05-11T02:11:37;49406.59;;;-144.43;67.25
37486;BME280;23341;50.296;18.960;2023-05-11T02:16:47;49384.59;;;-144.43;67.79
37486;BME280;23341;50.296;18.960;2023-05-11T02:21:53;49390.59;;;-144.43;68.49
37486;BME280;23341;50.296;18.960;2023-05-11T02:26:58;49404.59;;;-144.43;68.33
37486;BME280;23341;50.296;18.960;2023-05-11T02:32:07;49412.59;;;-144.43;69.74
37486;BME280;23341;50.296;18.960;2023-05-11T02:37:14;49394.59;;;-144.43;69.43
37486;BME280;23341;50.296;18.960;2023-05-11T02:42:22;49384.59;;;-144.43;69.77
37486;BME280;23341;50.296;18.960;2023-05-11T02:47:33;49378.63;;;-144.43;70.17
37486;BME280;23341;50.296;18.960;2023-05-11T02:52:43;49398.59;;;-144.43;70.68
37486;BME280;23341;50.296;18.960;2023-05-11T02:57:49;49386.59;;;-144.43;70.80
37486;BME280;23341;50.296;18.960;2023-05-11T03:02:56;49410.59;;;-144.43;71.82
37486;BME280;23341;50.296;18.960;2023-05-11T03:08:02;49454.56;;;-144.43;72.09
37486;BME280;23341;50.296;18.960;2023-05-11T03:13:08;49374.63;;;-144.43;71.86
37486;BME280;23341;50.296;18.960;2023-05-11T03:18:15;49420.59;;;-144.43;70.86
37486;BME280;23341;50.296;18.960;2023-05-11T03:23:22;49420.59;;;-144.43;70.58
37486;BME280;23341;50.296;18.960;2023-05-11T03:28:28;49438.56;;;-144.43;70.90
37486;BME280;23341;50.296;18.960;2023-05-11T03:33:40;49442.56;;;-144.43;69.88
37486;BME280;23341;50.296;18.960;2023-05-11T03:38:45;49448.56;;;-144.43;69.70
37486;BME280;23341;50.296;18.960;2023-05-11T03:43:53;49462.56;;;-144.43;69.16
37486;BME280;23341;50.296;18.960;2023-05-11T03:49:00;49486.53;;;-144.43;68.40
37486;BME280;23341;50.296;18.960;2023-05-11T03:54:06;49506.53;;;-144.43;67.91
37486;BME280;23341;50.296;18.960;2023-05-11T03:59:13;49496.53;;;-144.43;65.98
37486;BME280;23341;50.296;18.960;2023-05-11T04:04:25;49524.53;;;-144.43;65.53
37486;BME280;23341;50.296;18.960;2023-05-11T04:09:32;49530.50;;;-144.43;64.55
37486;BME280;23341;50.296;18.960;2023-05-11T04:14:36;49526.50;;;-144.43;64.79
37486;BME280;23341;50.296;18.960;2023-05-11T04:19:42;49498.53;;;-144.43;64.13
37486;BME280;23341;50.296;18.960;2023-05-11T04:24:46;49502.53;;;-144.43;64.24
37486;BME280;23341;50.296;18.960;2023-05-11T04:29:50;49492.53;;;-144.43;64.55
37486;BME280;23341;50.296;18.960;2023-05-11T04:34:56;49498.53;;;-144.43;65.35
37486;BME280;23341;50.296;18.960;2023-05-11T04:40:05;49480.53;;;-144.43;66.51
37486;BME280;23341;50.296;18.960;2023-05-11T04:45:15;49510.53;;;-144.43;69.64
37486;BME280;23341;50.296;18.960;2023-05-11T04:50:21;49510.53;;;-144.43;68.10
37486;BME280;23341;50.296;18.960;2023-05-11T04:55:25;49528.50;;;-144.43;67.57
37486;BME280;23341;50.296;18.960;2023-05-11T05:00:31;49514.53;;;-144.43;66.95
37486;BME280;23341;50.296;18.960;2023-05-11T05:05:36;49538.50;;;-144.43;65.78
37486;BME280;23341;50.296;18.960;2023-05-11T05:10:41;49598.47;;;-144.43;65.20
37486;BME280;23341;50.296;18.960;2023-05-11T05:15:45;49610.47;;;-144.43;63.00
37486;BME280;23341;50.296;18.960;2023-05-11T05:20:51;49586.47;;;-144.43;62.33
37486;BME280;23341;50.296;18.960;2023-05-11T05:25:55;49620.47;;;-144.43;61.52
37486;BME280;23341;50.296;18.960;2023-05-11T05:31:00;49646.44;;;-144.43;60.96
37486;BME280;23341;50.296;18.960;2023-05-11T05:36:06;49694.41;;;-144.43;61.01
37486;BME280;23341;50.296;18.960;2023-05-11T05:41:11;49788.34;;;-144.43;58.87
37486;BME280;23341;50.296;18.960;2023-05-11T05:46:18;49842.31;;;-144.43;56.78
37486;BME280;23341;50.296;18.960;2023-05-11T05:51:25;49794.34;;;-144.43;55.83
37486;BME280;23341;50.296;18.960;2023-05-11T05:56:29;49912.28;;;-144.43;52.76
37486;BME280;23341;50.296;18.960;2023-05-11T06:01:34;50534.00;;;-144.43;43.10
37486;BME280;23341;50.296;18.960;2023-05-11T06:06:40;50737.94;;;-144.43;37.06
37486;BME280;23341;50.296;18.960;2023-05-11T06:11:45;50256.13;;;-144.43;41.35
37486;BME280;23341;50.296;18.960;2023-05-11T06:16:50;50304.09;;;-144.43;40.96
37486;BME280;23341;50.296;18.960;2023-05-11T06:21:58;50442.03;;;-144.43;39.39
37486;BME280;23341;50.296;18.960;2023-05-11T06:27:06;50675.94;;;-144.43;38.09
37486;BME280;23341;50.296;18.960;2023-05-11T06:32:11;51063.81;;;-144.43;34.24
37486;BME280;23341;50.296;18.960;2023-05-11T06:37:18;51397.75;;;-144.43;32.56
37486;BME280;23341;50.296;18.960;2023-05-11T06:42:25;51841.72;;;-144.43;30.75
37486;BME280;23341;50.296;18.960;2023-05-11T06:47:40;51237.78;;;-144.43;32.92
37486;BME280;23341;50.296;18.960;2023-05-11T06:52:46;51249.78;;;-144.43;32.61
37486;BME280;23341;50.296;18.960;2023-05-11T06:57:50;51849.72;;;-144.43;30.47
37486;BME280;23341;50.296;18.960;2023-05-11T07:02:55;52221.72;;;-144.43;29.41
37486;BME280;23341;50.296;18.960;2023-05-11T07:08:01;52403.72;;;-144.43;29.29
37486;BME280;23341;50.296;18.960;2023-05-11T07:13:07;53291.91;;;-144.43;27.03
37486;BME280;23341;50.296;18.960;2023-05-11T07:18:11;53099.84;;;-144.43;27.55
37486;BME280;23341;50.296;18.960;2023-05-11T07:23:17;53594.00;;;-144.43;26.94
37486;BME280;23341;50.296;18.960;2023-05-11T07:28:22;54418.41;;;-144.43;25.37
37486;BME280;23341;50.296;18.960;2023-05-11T07:33:26;54566.50;;;-144.43;24.36
37486;BME280;23341;50.296;18.960;2023-05-11T07:38:32;54034.19;;;-144.43;24.93
37486;BME280;23341;50.296;18.960;2023-05-11T07:43:36;53213.88;;;-144.43;26.04
37486;BME280;23341;50.296;18.960;2023-05-11T07:48:43;53133.84;;;-144.43;26.61
37486;BME280;23341;50.296;18.960;2023-05-11T07:53:49;53555.97;;;-144.43;25.77
37486;BME280;23341;50.296;18.960;2023-05-11T07:58:53;54708.59;;;-144.43;24.33
37486;BME280;23341;50.296;18.960;2023-05-11T08:03:58;55319.03;;;-144.43;23.67
37486;BME280;23341;50.296;18.960;2023-05-11T08:09:04;54390.38;;;-144.43;24.38
37486;BME280;23341;50.296;18.960;2023-05-11T08:14:08;55329.06;;;-144.43;23.58
37486;BME280;23341;50.296;18.960;2023-05-11T08:19:12;55519.22;;;-144.43;23.15
37486;BME280;23341;50.296;18.960;2023-05-11T08:24:18;55389.09;;;-144.43;22.77
37486;BME280;23341;50.296;18.960;2023-05-11T08:29:22;55617.28;;;-144.43;22.79
37486;BME280;23341;50.296;18.960;2023-05-11T08:34:29;55649.31;;;-144.43;22.55
37486;BME280;23341;50.296;18.960;2023-05-11T08:39:37;55377.09;;;-144.43;22.64
37486;BME280;23341;50.296;18.960;2023-05-11T08:44:51;54840.69;;;-144.43;23.42
37486;BME280;23341;50.296;18.960;2023-05-11T08:49:58;53672.03;;;-144.43;24.21
37486;BME280;23341;50.296;18.960;2023-05-11T08:55:05;52547.72;;;-144.43;25.95
37486;BME280;23341;50.296;18.960;2023-05-11T09:00:12;52759.75;;;-144.43;26.54
37486;BME280;23341;50.296;18.960;2023-05-11T09:05:18;52961.81;;;-144.43;26.04
37486;BME280;23341;50.296;18.960;2023-05-11T09:10:25;52921.78;;;-144.43;25.64
37486;BME280;23341;50.296;18.960;2023-05-11T09:15:30;52217.72;;;-144.43;27.13
37486;BME280;23341;50.296;18.960;2023-05-11T09:20:42;51425.75;;;-144.43;29.83
37486;BME280;23341;50.296;18.960;2023-05-11T09:25:47;51659.72;;;-144.43;29.12
37486;BME280;23341;50.296;18.960;2023-05-11T09:30:52;51785.72;;;-144.43;28.51
37486;BME280;23341;50.296;18.960;2023-05-11T09:35:57;51547.75;;;-144.43;27.39
37486;BME280;23341;50.296;18.960;2023-05-11T09:41:02;51533.75;;;-144.43;29.54
37486;BME280;23341;50.296;18.960;2023-05-11T09:46:20;51741.72;;;-144.43;27.52
37486;BME280;23341;50.296;18.960;2023-05-11T09:51:28;51707.72;;;-144.43;28.23
37486;BME280;23341;50.296;18.960;2023-05-11T09:56:53;51325.78;;;-144.43;29.19
37486;BME280;23341;50.296;18.960;2023-05-11T10:02:15;51121.81;;;-144.43;29.87
37486;BME280;23341;50.296;18.960;2023-05-11T10:07:23;51205.78;;;-144.43;28.93
37486;BME280;23341;50.296;18.960;2023-05-11T10:12:30;51149.81;;;-144.43;29.37
37486;BME280;23341;50.296;18.960;2023-05-11T10:17:36;51281.78;;;-144.43;28.04
37486;BME280;23341;50.296;18.960;2023-05-11T10:22:41;51429.75;;;-144.43;25.31
37486;BME280;23341;50.296;18.960;2023-05-11T10:27:47;51163.81;;;-144.43;25.54
37486;BME280;23341;50.296;18.960;2023-05-11T10:32:52;51291.78;;;-144.43;25.15
37486;BME280;23341;50.296;18.960;2023-05-11T10:37:59;51345.75;;;-144.43;24.66
37486;BME280;23341;50.296;18.960;2023-05-11T10:43:22;50993.84;;;-144.43;24.62
37486;BME280;23341;50.296;18.960;2023-05-11T10:48:52;50897.88;;;-144.43;25.29
37486;BME280;23341;50.296;18.960;2023-05-11T10:54:20;51021.84;;;-144.43;24.79
37486;BME280;23341;50.296;18.960;2023-05-11T11:05:10;51093.81;;;-144.43;24.34
37486;BME280;23341;50.296;18.960;2023-05-11T11:10:29;50985.84;;;-144.43;23.91
37486;BME280;23341;50.296;18.960;2023-05-11T11:16:08;50941.88;;;-144.43;24.45
37486;BME280;23341;50.296;18.960;2023-05-11T11:21:38;51011.84;;;-144.43;23.43
37486;BME280;23341;50.296;18.960;2023-05-11T11:26:46;50747.91;;;-144.43;23.93
37486;BME280;23341;50.296;18.960;2023-05-11T11:31:53;51129.81;;;-144.43;23.40
37486;BME280;23341;50.296;18.960;2023-05-11T11:37:05;50861.88;;;-144.43;24.33
37486;BME280;23341;50.296;18.960;2023-05-11T11:42:12;50893.88;;;-144.43;23.65
37486;BME280;23341;50.296;18.960;2023-05-11T11:47:19;51025.84;;;-144.43;23.78
37486;BME280;23341;50.296;18.960;2023-05-11T11:52:33;50973.84;;;-144.43;23.97
37486;BME280;23341;50.296;18.960;2023-05-11T11:57:43;50841.88;;;-144.43;23.67
37486;BME280;23341;50.296;18.960;2023-05-11T12:02:54;51191.78;;;-144.43;24.11
37486;BME280;23341;50.296;18.960;2023-05-11T12:08:05;51135.81;;;-144.43;24.83
37486;BME280;23341;50.296;18.960;2023-05-11T12:13:09;51233.78;;;-144.43;24.60
37486;BME280;23341;50.296;18.960;2023-05-11T12:18:21;51349.78;;;-144.43;25.03
37486;BME280;23341;50.296;18.960;2023-05-11T12:23:25;51573.72;;;-144.43;24.47
37486;BME280;23341;50.296;18.960;2023-05-11T12:28:31;51501.75;;;-144.43;24.63
37486;BME280;23341;50.296;18.960;2023-05-11T12:33:45;51309.78;;;-144.43;26.55
37486;BME280;23341;50.296;18.960;2023-05-11T12:38:50;51381.75;;;-144.43;25.71
37486;BME280;23341;50.296;18.960;2023-05-11T12:43:54;51659.72;;;-144.43;25.26
37486;BME280;23341;50.296;18.960;2023-05-11T12:49:00;51277.78;;;-144.43;25.93
37486;BME280;23341;50.296;18.960;2023-05-11T12:54:05;51645.72;;;-144.43;25.14
37486;BME280;23341;50.296;18.960;2023-05-11T12:59:23;51757.72;;;-144.43;24.33
37486;BME280;23341;50.296;18.960;2023-05-11T13:04:29;52157.69;;;-144.43;23.77
37486;BME280;23341;50.296;18.960;2023-05-11T13:09:34;52329.72;;;-144.43;23.63
37486;BME280;23341;50.296;18.960;2023-05-11T13:14:38;52685.75;;;-144.43;23.55
37486;BME280;23341;50.296;18.960;2023-05-11T13:19:45;53057.81;;;-144.43;23.25
37486;BME280;23341;50.296;18.960;2023-05-11T13:25:00;53361.91;;;-144.43;22.41
37486;BME280;23341;50.296;18.960;2023-05-11T13:30:05;52791.78;;;-144.43;23.14
37486;BME280;23341;50.296;18.960;2023-05-11T13:35:11;52973.81;;;-144.43;23.30
37486;BME280;23341;50.296;18.960;2023-05-11T13:40:16;53085.84;;;-144.43;23.24
37486;BME280;23341;50.296;18.960;2023-05-11T13:45:20;53491.97;;;-144.43;22.53
37486;BME280;23341;50.296;18.960;2023-05-11T13:50:26;52955.81;;;-144.43;23.25
37486;BME280;23341;50.296;18.960;2023-05-11T13:55:31;52981.81;;;-144.43;23.12
37486;BME280;23341;50.296;18.960;2023-05-11T14:00:35;52985.81;;;-144.43;22.87
37486;BME280;23341;50.296;18.960;2023-05-11T14:05:43;52773.75;;;-144.43;23.32
37486;BME280;23341;50.296;18.960;2023-05-11T14:10:48;52549.72;;;-144.43;23.93
37486;BME280;23341;50.296;18.960;2023-05-11T14:15:52;52917.78;;;-144.43;23.09
37486;BME280;23341;50.296;18.960;2023-05-11T14:20:58;52419.72;;;-144.43;24.15
37486;BME280;23341;50.296;18.960;2023-05-11T14:26:02;52125.69;;;-144.43;24.45
37486;BME280;23341;50.296;18.960;2023-05-11T14:31:06;52141.69;;;-144.43;25.11
37486;BME280;23341;50.296;18.960;2023-05-11T14:36:12;52481.72;;;-144.43;23.88
37486;BME280;23341;50.296;18.960;2023-05-11T14:41:16;52411.72;;;-144.43;24.00
37486;BME280;23341;50.296;18.960;2023-05-11T14:46:22;51933.69;;;-144.43;25.01
37486;BME280;23341;50.296;18.960;2023-05-11T14:51:29;51875.72;;;-144.43;25.10
37486;BME280;23341;50.296;18.960;2023-05-11T14:56:34;51565.72;;;-144.43;25.19
37486;BME280;23341;50.296;18.960;2023-05-11T15:01:38;51257.78;;;-144.43;25.68
37486;BME280;23341;50.296;18.960;2023-05-11T15:06:44;51439.75;;;-144.43;25.84
37486;BME280;23341;50.296;18.960;2023-05-11T15:11:49;51437.75;;;-144.43;25.64
37486;BME280;23341;50.296;18.960;2023-05-11T15:16:53;51487.75;;;-144.43;25.41
37486;BME280;23341;50.296;18.960;2023-05-11T15:22:02;51725.72;;;-144.43;25.16
37486;BME280;23341;50.296;18.960;2023-05-11T15:27:06;51397.75;;;-144.43;25.70
37486;BME280;23341;50.296;18.960;2023-05-11T15:32:12;51369.75;;;-144.43;25.51
37486;BME280;23341;50.296;18.960;2023-05-11T15:37:18;51521.75;;;-144.43;25.68
37486;BME280;23341;50.296;18.960;2023-05-11T15:42:23;51441.75;;;-144.43;25.93
37486;BME280;23341;50.296;18.960;2023-05-11T15:47:28;51431.75;;;-144.43;25.91
37486;BME280;23341;50.296;18.960;2023-05-11T15:52:33;51163.81;;;-144.43;26.16
37486;BME280;23341;50.296;18.960;2023-05-11T15:57:38;50933.88;;;-144.43;27.18
37486;BME280;23341;50.296;18.960;2023-05-11T16:02:42;50745.91;;;-144.43;27.94
37486;BME280;23341;50.296;18.960;2023-05-11T16:07:50;50621.97;;;-144.43;28.81
37486;BME280;23341;50.296;18.960;2023-05-11T16:12:54;50625.97;;;-144.43;28.83
37486;BME280;23341;50.296;18.960;2023-05-11T16:18:00;50639.97;;;-144.43;28.99
37486;BME280;23341;50.296;18.960;2023-05-11T16:23:08;50482.03;;;-144.43;29.73
37486;BME280;23341;50.296;18.960;2023-05-11T16:28:12;50406.06;;;-144.43;30.54
37486;BME280;23341;50.296;18.960;2023-05-11T16:33:16;50354.06;;;-144.43;31.39
37486;BME280;23341;50.296;18.960;2023-05-11T16:38:23;50324.09;;;-144.43;32.06
37486;BME280;23341;50.296;18.960;2023-05-11T16:43:27;50256.13;;;-144.43;32.34
37486;BME280;23341;50.296;18.960;2023-05-11T16:48:32;50244.13;;;-144.43;33.04
37486;BME280;23341;50.296;18.960;2023-05-11T16:53:37;50248.13;;;-144.43;33.46
37486;BME280;23341;50.296;18.960;2023-05-11T16:58:42;50198.13;;;-144.43;33.91
37486;BME280;23341;50.296;18.960;2023-05-11T17:03:46;50182.16;;;-144.43;34.20
37486;BME280;23341;50.296;18.960;2023-05-11T17:08:52;50178.16;;;-144.43;34.53
37486;BME280;23341;50.296;18.960;2023-05-11T17:13:57;50168.16;;;-144.43;34.56
37486;BME280;23341;50.296;18.960;2023-05-11T17:19:01;50134.16;;;-144.43;34.92
37486;BME280;23341;50.296;18.960;2023-05-11T17:24:07;50106.19;;;-144.43;34.95
37486;BME280;23341;50.296;18.960;2023-05-11T17:29:11;50086.19;;;-144.43;35.38
37486;BME280;23341;50.296;18.960;2023-05-11T17:34:16;50082.19;;;-144.43;35.53
37486;BME280;23341;50.296;18.960;2023-05-11T17:39:22;50072.19;;;-144.43;35.87
37486;BME280;23341;50.296;18.960;2023-05-11T17:44:26;50050.22;;;-144.43;36.18
37486;BME280;23341;50.296;18.960;2023-05-11T17:49:31;50020.22;;;-144.43;36.64
37486;BME280;23341;50.296;18.960;2023-05-11T17:54:37;50006.25;;;-144.43;37.27
37486;BME280;23341;50.296;18.960;2023-05-11T17:59:41;49992.25;;;-144.43;37.55
37486;BME280;23341;50.296;18.960;2023-05-11T18:04:46;49974.25;;;-144.43;37.54
37486;BME280;23341;50.296;18.960;2023-05-11T18:09:51;49928.28;;;-144.43;37.33
37486;BME280;23341;50.296;18.960;2023-05-11T18:14:55;49910.28;;;-144.43;37.28
37486;BME280;23341;50.296;18.960;2023-05-11T18:20:00;49924.28;;;-144.43;37.78
37486;BME280;23341;50.296;18.960;2023-05-11T18:25:08;49874.31;;;-144.43;38.25
37486;BME280;23341;50.296;18.960;2023-05-11T18:30:13;49928.28;;;-144.43;38.41
37486;BME280;23341;50.296;18.960;2023-05-11T18:35:17;49890.31;;;-144.43;39.39
37486;BME280;23341;50.296;18.960;2023-05-11T18:40:23;49858.31;;;-144.43;40.06
37486;BME280;23341;50.296;18.960;2023-05-11T18:45:28;49856.31;;;-144.43;40.33
37486;BME280;23341;50.296;18.960;2023-05-11T18:50:34;49866.31;;;-144.43;40.67
37486;BME280;23341;50.296;18.960;2023-05-11T18:55:40;49856.31;;;-144.43;41.67
37486;BME280;23341;50.296;18.960;2023-05-11T19:00:55;49806.34;;;-144.43;41.89
37486;BME280;23341;50.296;18.960;2023-05-11T19:05:59;49804.34;;;-144.43;42.80
37486;BME280;23341;50.296;18.960;2023-05-11T19:11:07;49784.34;;;-144.43;43.50
37486;BME280;23341;50.296;18.960;2023-05-11T19:16:12;49774.38;;;-144.43;43.53
37486;BME280;23341;50.296;18.960;2023-05-11T19:21:16;49778.38;;;-144.43;43.65
37486;BME280;23341;50.296;18.960;2023-05-11T19:26:22;49740.38;;;-144.43;43.97
37486;BME280;23341;50.296;18.960;2023-05-11T19:31:27;49770.38;;;-144.43;44.67
37486;BME280;23341;50.296;18.960;2023-05-11T19:36:33;49742.38;;;-144.43;44.88
37486;BME280;23341;50.296;18.960;2023-05-11T19:41:39;49730.38;;;-144.43;45.30
37486;BME280;23341;50.296;18.960;2023-05-11T19:46:43;49702.41;;;-144.43;45.64
37486;BME280;23341;50.296;18.960;2023-05-11T19:51:49;49678.41;;;-144.43;46.00
37486;BME280;23341;50.296;18.960;2023-05-11T19:56:55;49682.41;;;-144.43;47.05
37486;BME280;23341;50.296;18.960;2023-05-11T20:02:01;49634.44;;;-144.43;46.49
37486;BME280;23341;50.296;18.960;2023-05-11T20:07:06;49690.41;;;-144.43;47.25
37486;BME280;23341;50.296;18.960;2023-05-11T20:12:12;49674.44;;;-144.43;47.27
37486;BME280;23341;50.296;18.960;2023-05-11T20:17:16;49676.41;;;-144.43;47.78
37486;BME280;23341;50.296;18.960;2023-05-11T20:22:21;49638.44;;;-144.43;48.41
37486;BME280;23341;50.296;18.960;2023-05-11T20:27:26;49626.44;;;-144.43;48.76
37486;BME280;23341;50.296;18.960;2023-05-11T20:32:31;49622.47;;;-144.43;49.09
37486;BME280;23341;50.296;18.960;2023-05-11T20:37:35;49634.44;;;-144.43;49.29
37486;BME280;23341;50.296;18.960;2023-05-11T20:42:41;49602.47;;;-144.43;48.87
37486;BME280;23341;50.296;18.960;2023-05-11T20:47:46;49602.47;;;-144.43;49.80
37486;BME280;23341;50.296;18.960;2023-05-11T20:52:50;49584.47;;;-144.43;49.77
37486;BME280;23341;50.296;18.960;2023-05-11T20:57:56;49586.47;;;-144.43;49.93
37486;BME280;23341;50.296;18.960;2023-05-11T21:03:01;49586.47;;;-144.43;50.14
37486;BME280;23341;50.296;18.960;2023-05-11T21:08:06;49608.47;;;-144.43;50.13
37486;BME280;23341;50.296;18.960;2023-05-11T21:13:12;49550.50;;;-144.43;50.15
37486;BME280;23341;50.296;18.960;2023-05-11T21:18:17;49558.50;;;-144.43;50.39
37486;BME280;23341;50.296;18.960;2023-05-11T21:23:21;49578.47;;;-144.43;50.76
37486;BME280;23341;50.296;18.960;2023-05-11T21:28:28;49526.50;;;-144.43;51.36
37486;BME280;23341;50.296;18.960;2023-05-11T21:33:32;49520.53;;;-144.43;50.95
37486;BME280;23341;50.296;18.960;2023-05-11T21:38:36;49510.53;;;-144.43;51.32
37486;BME280;23341;50.296;18.960;2023-05-11T21:43:42;49520.53;;;-144.43;51.35
37486;BME280;23341;50.296;18.960;2023-05-11T21:48:47;49506.53;;;-144.43;50.86
37486;BME280;23341;50.296;18.960;2023-05-11T21:53:51;49538.50;;;-144.43;52.34
37486;BME280;23341;50.296;18.960;2023-05-11T21:58:57;49500.53;;;-144.43;52.32
37486;BME280;23341;50.296;18.960;2023-05-11T22:04:02;49490.53;;;-144.43;52.33
37486;BME280;23341;50.296;18.960;2023-05-11T22:09:08;49514.53;;;-144.43;52.57
37486;BME280;23341;50.296;18.960;2023-05-11T22:14:14;49494.53;;;-144.43;52.87
37486;BME280;23341;50.296;18.960;2023-05-11T22:19:19;49486.53;;;-144.43;53.28
37486;BME280;23341;50.296;18.960;2023-05-11T22:24:23;49454.56;;;-144.43;52.87
37486;BME280;23341;50.296;18.960;2023-05-11T22:29:30;49466.56;;;-144.43;53.91
37486;BME280;23341;50.296;18.960;2023-05-11T22:34:35;49474.56;;;-144.43;53.99
37486;BME280;23341;50.296;18.960;2023-05-11T22:39:39;49434.56;;;-144.43;54.03
37486;BME280;23341;50.296;18.960;2023-05-11T22:44:45;49434.56;;;-144.43;53.73
37486;BME280;23341;50.296;18.960;2023-05-11T22:49:49;49442.56;;;-144.43;54.31
37486;BME280;23341;50.296;18.960;2023-05-11T22:54:54;49410.59;;;-144.43;54.98
37486;BME280;23341;50.296;18.960;2023-05-11T23:00:00;49464.56;;;-144.43;54.50
37486;BME280;23341;50.296;18.960;2023-05-11T23:05:06;49438.56;;;-144.43;54.66
37486;BME280;23341;50.296;18.960;2023-05-11T23:10:11;49432.56;;;-144.43;55.07
37486;BME280;23341;50.296;18.960;2023-05-11T23:15:17;49402.59;;;-144.43;55.73
37486;BME280;23341;50.296;18.960;2023-05-11T23:20:21;49406.59;;;-144.43;54.97
37486;BME280;23341;50.296;18.960;2023-05-11T23:25:25;49438.56;;;-144.43;56.36
37486;BME280;23341;50.296;18.960;2023-05-11T23:30:31;49412.59;;;-144.43;56.97
37486;BME280;23341;50.296;18.960;2023-05-11T23:35:35;49386.59;;;-144.43;56.12
37486;BME280;23341;50.296;18.960;2023-05-11T23:40:39;49384.59;;;-144.43;57.39
37486;BME280;23341;50.296;18.960;2023-05-11T23:45:46;49406.59;;;-144.43;58.09
37486;BME280;23341;50.296;18.960;2023-05-11T23:50:50;49390.59;;;-144.43;58.46
37486;BME280;23341;50.296;18.960;2023-05-11T23:55:55;49394.59;;;-144.43;58.40
